sensor_id;sensor_type;location;lat;lon;timestamp;P1;durP1;ratioP1;P2;durP2;ratioP2
2624;SDS011;1322;53.256;10.386;2022-12-07T00:00:52;15.23;;;10.50;;
2624;SDS011;1322;53.256;10.386;2022-12-07T00:03:18;16.20;;;11.53;;
2624;SDS011;1322;53.256;10.386;2022-12-07T00:05:44;12.93;;;9.50;;
2624;SDS011;1322;53.256;10.386;2022-12-07T00:08:10;12.40;;;9.90;;
2624;SDS011;1322;53.256;10.386;2022-12-07T00:10:35;10.20;;;7.83;;
2624;SDS011;1322;53.256;10.386;2022-12-07T00:13:01;12.43;;;9.20;;
2624;SDS011;1322;53.256;10.386;2022-12-07T00:15:27;14.00;;;9.83;;
2624;SDS011;1322;53.256;10.386;2022-12-07T00:17:52;13.50;;;9.30;;
2624;SDS011;1322;53.256;10.386;2022-12-07T00:20:18;11.57;;;8.80;;
2624;SDS011;1322;53.256;10.386;2022-12-07T00:22:43;11.70;;;8.40;;
2624;SDS011;1322;53.256;10.386;2022-12-07T00:25:09;12.40;;;8.13;;
2624;SDS011;1322;53.256;10.386;2022-12-07T00:27:35;12.43;;;8.47;;
2624;SDS011;1322;53.256;10.386;2022-12-07T00:30:00;14.50;;;9.13;;
2624;SDS011;1322;53.256;10.386;2022-12-07T00:32:26;14.20;;;9.23;;
2624;SDS011;1322;53.256;10.386;2022-12-07T00:34:51;12.40;;;8.67;;
2624;SDS011;1322;53.256;10.386;2022-12-07T00:37:17;14.27;;;9.20;;
2624;SDS011;1322;53.256;10.386;2022-12-07T00:39:43;16.43;;;7.37;;
2624;SDS011;1322;53.256;10.386;2022-12-07T00:42:10;14.37;;;9.83;;
2624;SDS011;1322;53.256;10.386;2022-12-07T00:44:36;13.40;;;8.27;;
2624;SDS011;1322;53.256;10.386;2022-12-07T00:47:01;14.20;;;9.27;;
2624;SDS011;1322;53.256;10.386;2022-12-07T00:49:27;12.70;;;9.50;;
2624;SDS011;1322;53.256;10.386;2022-12-07T00:51:52;14.40;;;9.97;;
2624;SDS011;1322;53.256;10.386;2022-12-07T00:54:18;12.97;;;9.80;;
2624;SDS011;1322;53.256;10.386;2022-12-07T00:56:43;13.80;;;9.13;;
2624;SDS011;1322;53.256;10.386;2022-12-07T00:59:10;16.60;;;10.40;;
2624;SDS011;1322;53.256;10.386;2022-12-07T01:01:39;14.00;;;8.33;;
2624;SDS011;1322;53.256;10.386;2022-12-07T01:04:05;21.97;;;11.00;;
2624;SDS011;1322;53.256;10.386;2022-12-07T01:06:31;15.40;;;10.17;;
2624;SDS011;1322;53.256;10.386;2022-12-07T01:08:57;12.20;;;8.30;;
2624;SDS011;1322;53.256;10.386;2022-12-07T01:11:23;16.70;;;9.50;;
2624;SDS011;1322;53.256;10.386;2022-12-07T01:13:51;21.97;;;10.20;;
2624;SDS011;1322;53.256;10.386;2022-12-07T01:16:19;15.23;;;8.30;;
2624;SDS011;1322;53.256;10.386;2022-12-07T01:18:46;15.97;;;8.50;;
2624;SDS011;1322;53.256;10.386;2022-12-07T01:21:18;13.93;;;8.43;;
2624;SDS011;1322;53.256;10.386;2022-12-07T01:23:45;15.40;;;9.30;;
2624;SDS011;1322;53.256;10.386;2022-12-07T01:26:12;12.23;;;8.20;;
2624;SDS011;1322;53.256;10.386;2022-12-07T01:28:39;13.83;;;8.43;;
2624;SDS011;1322;53.256;10.386;2022-12-07T01:31:07;12.77;;;8.73;;
2624;SDS011;1322;53.256;10.386;2022-12-07T01:33:40;11.37;;;7.67;;
2624;SDS011;1322;53.256;10.386;2022-12-07T01:38:42;15.23;;;9.00;;
2624;SDS011;1322;53.256;10.386;2022-12-07T01:41:11;11.57;;;8.47;;
2624;SDS011;1322;53.256;10.386;2022-12-07T01:44:06;16.67;;;9.80;;
2624;SDS011;1322;53.256;10.386;2022-12-07T01:46:34;16.43;;;9.67;;
2624;SDS011;1322;53.256;10.386;2022-12-07T01:49:00;14.27;;;8.70;;
2624;SDS011;1322;53.256;10.386;2022-12-07T01:51:26;11.90;;;7.53;;
2624;SDS011;1322;53.256;10.386;2022-12-07T01:53:53;13.43;;;7.93;;
2624;SDS011;1322;53.256;10.386;2022-12-07T01:56:20;17.17;;;9.17;;
2624;SDS011;1322;53.256;10.386;2022-12-07T01:58:49;13.43;;;9.73;;
2624;SDS011;1322;53.256;10.386;2022-12-07T02:01:16;17.53;;;9.37;;
2624;SDS011;1322;53.256;10.386;2022-12-07T02:03:42;14.03;;;9.57;;
2624;SDS011;1322;53.256;10.386;2022-12-07T02:06:10;14.10;;;8.73;;
2624;SDS011;1322;53.256;10.386;2022-12-07T02:08:38;12.57;;;8.80;;
2624;SDS011;1322;53.256;10.386;2022-12-07T02:11:04;17.23;;;9.10;;
2624;SDS011;1322;53.256;10.386;2022-12-07T02:13:33;15.63;;;8.30;;
2624;SDS011;1322;53.256;10.386;2022-12-07T02:18:50;14.33;;;8.97;;
2624;SDS011;1322;53.256;10.386;2022-12-07T02:29:27;13.50;;;6.90;;
2624;SDS011;1322;53.256;10.386;2022-12-07T02:34:48;11.50;;;7.33;;
2624;SDS011;1322;53.256;10.386;2022-12-07T02:42:58;12.30;;;8.03;;
2624;SDS011;1322;53.256;10.386;2022-12-07T02:45:32;18.57;;;8.27;;
2624;SDS011;1322;53.256;10.386;2022-12-07T02:48:01;10.30;;;7.50;;
2624;SDS011;1322;53.256;10.386;2022-12-07T02:50:28;11.70;;;6.90;;
2624;SDS011;1322;53.256;10.386;2022-12-07T02:52:54;13.43;;;7.00;;
2624;SDS011;1322;53.256;10.386;2022-12-07T02:55:22;13.67;;;7.20;;
2624;SDS011;1322;53.256;10.386;2022-12-07T02:58:01;12.07;;;7.53;;
2624;SDS011;1322;53.256;10.386;2022-12-07T03:00:31;15.60;;;7.70;;
2624;SDS011;1322;53.256;10.386;2022-12-07T03:03:09;13.60;;;6.97;;
2624;SDS011;1322;53.256;10.386;2022-12-07T03:08:47;10.47;;;5.97;;
2624;SDS011;1322;53.256;10.386;2022-12-07T03:11:30;10.70;;;6.33;;
2624;SDS011;1322;53.256;10.386;2022-12-07T03:14:09;8.00;;;5.10;;
2624;SDS011;1322;53.256;10.386;2022-12-07T03:17:19;7.37;;;5.33;;
2624;SDS011;1322;53.256;10.386;2022-12-07T03:19:40;7.90;;;5.73;;
2624;SDS011;1322;53.256;10.386;2022-12-07T03:22:09;9.83;;;5.23;;
2624;SDS011;1322;53.256;10.386;2022-12-07T03:24:42;9.90;;;5.17;;
2624;SDS011;1322;53.256;10.386;2022-12-07T03:29:50;9.33;;;4.80;;
2624;SDS011;1322;53.256;10.386;2022-12-07T03:35:17;6.20;;;4.10;;
2624;SDS011;1322;53.256;10.386;2022-12-07T03:37:57;15.40;;;5.47;;
2624;SDS011;1322;53.256;10.386;2022-12-07T03:40:33;8.27;;;4.00;;
2624;SDS011;1322;53.256;10.386;2022-12-07T03:43:02;7.70;;;4.53;;
2624;SDS011;1322;53.256;10.386;2022-12-07T03:45:40;9.03;;;4.23;;
2624;SDS011;1322;53.256;10.386;2022-12-07T03:50:49;9.13;;;3.90;;
2624;SDS011;1322;53.256;10.386;2022-12-07T03:53:23;5.70;;;4.07;;
2624;SDS011;1322;53.256;10.386;2022-12-07T03:56:02;9.33;;;4.20;;
2624;SDS011;1322;53.256;10.386;2022-12-07T03:58:29;9.63;;;4.17;;
2624;SDS011;1322;53.256;10.386;2022-12-07T04:00:56;5.73;;;3.20;;
2624;SDS011;1322;53.256;10.386;2022-12-07T04:03:22;6.30;;;4.13;;
2624;SDS011;1322;53.256;10.386;2022-12-07T04:05:47;8.97;;;3.83;;
2624;SDS011;1322;53.256;10.386;2022-12-07T04:08:14;7.00;;;4.17;;
2624;SDS011;1322;53.256;10.386;2022-12-07T04:10:39;7.93;;;4.20;;
2624;SDS011;1322;53.256;10.386;2022-12-07T04:13:05;6.47;;;3.80;;
2624;SDS011;1322;53.256;10.386;2022-12-07T04:15:30;5.60;;;3.23;;
2624;SDS011;1322;53.256;10.386;2022-12-07T04:17:56;13.50;;;3.87;;
2624;SDS011;1322;53.256;10.386;2022-12-07T04:20:22;6.67;;;3.77;;
2624;SDS011;1322;53.256;10.386;2022-12-07T04:22:47;6.80;;;4.00;;
2624;SDS011;1322;53.256;10.386;2022-12-07T04:25:13;16.20;;;4.00;;
2624;SDS011;1322;53.256;10.386;2022-12-07T04:27:39;12.27;;;4.33;;
2624;SDS011;1322;53.256;10.386;2022-12-07T04:30:05;6.10;;;3.77;;
2624;SDS011;1322;53.256;10.386;2022-12-07T04:32:31;7.30;;;3.30;;
2624;SDS011;1322;53.256;10.386;2022-12-07T04:34:56;7.73;;;4.83;;
2624;SDS011;1322;53.256;10.386;2022-12-07T04:37:22;6.77;;;3.97;;
2624;SDS011;1322;53.256;10.386;2022-12-07T04:39:48;5.40;;;3.67;;
2624;SDS011;1322;53.256;10.386;2022-12-07T04:42:14;6.13;;;3.30;;
2624;SDS011;1322;53.256;10.386;2022-12-07T04:44:39;6.70;;;4.00;;
2624;SDS011;1322;53.256;10.386;2022-12-07T04:47:05;10.10;;;3.57;;
2624;SDS011;1322;53.256;10.386;2022-12-07T04:49:31;5.90;;;3.30;;
2624;SDS011;1322;53.256;10.386;2022-12-07T04:51:56;5.40;;;3.50;;
2624;SDS011;1322;53.256;10.386;2022-12-07T04:54:22;4.60;;;3.00;;
2624;SDS011;1322;53.256;10.386;2022-12-07T04:56:47;9.60;;;4.80;;
2624;SDS011;1322;53.256;10.386;2022-12-07T04:59:14;5.17;;;2.90;;
2624;SDS011;1322;53.256;10.386;2022-12-07T05:01:41;5.30;;;3.50;;
2624;SDS011;1322;53.256;10.386;2022-12-07T05:04:07;7.17;;;3.07;;
2624;SDS011;1322;53.256;10.386;2022-12-07T05:06:32;6.27;;;3.37;;
2624;SDS011;1322;53.256;10.386;2022-12-07T05:08:58;7.50;;;3.70;;
2624;SDS011;1322;53.256;10.386;2022-12-07T05:11:24;4.37;;;3.17;;
2624;SDS011;1322;53.256;10.386;2022-12-07T05:16:32;5.90;;;3.37;;
2624;SDS011;1322;53.256;10.386;2022-12-07T05:18:58;5.67;;;3.23;;
2624;SDS011;1322;53.256;10.386;2022-12-07T05:21:24;5.03;;;2.37;;
2624;SDS011;1322;53.256;10.386;2022-12-07T05:23:49;6.47;;;2.70;;
2624;SDS011;1322;53.256;10.386;2022-12-07T05:26:16;4.20;;;2.90;;
2624;SDS011;1322;53.256;10.386;2022-12-07T05:28:42;9.07;;;3.20;;
2624;SDS011;1322;53.256;10.386;2022-12-07T05:31:08;4.37;;;2.70;;
2624;SDS011;1322;53.256;10.386;2022-12-07T05:33:34;5.13;;;2.53;;
2624;SDS011;1322;53.256;10.386;2022-12-07T05:36:00;6.73;;;2.90;;
2624;SDS011;1322;53.256;10.386;2022-12-07T05:38:30;4.20;;;2.60;;
2624;SDS011;1322;53.256;10.386;2022-12-07T05:40:59;6.40;;;2.33;;
2624;SDS011;1322;53.256;10.386;2022-12-07T05:43:29;5.00;;;3.33;;
2624;SDS011;1322;53.256;10.386;2022-12-07T05:45:55;4.00;;;2.77;;
2624;SDS011;1322;53.256;10.386;2022-12-07T05:48:21;6.07;;;2.93;;
2624;SDS011;1322;53.256;10.386;2022-12-07T05:50:47;3.40;;;2.60;;
2624;SDS011;1322;53.256;10.386;2022-12-07T05:53:14;3.13;;;2.67;;
2624;SDS011;1322;53.256;10.386;2022-12-07T05:55:39;5.07;;;2.40;;
2624;SDS011;1322;53.256;10.386;2022-12-07T05:58:05;5.50;;;3.03;;
2624;SDS011;1322;53.256;10.386;2022-12-07T06:00:49;5.17;;;2.73;;
2624;SDS011;1322;53.256;10.386;2022-12-07T06:03:14;4.20;;;3.00;;
2624;SDS011;1322;53.256;10.386;2022-12-07T06:05:40;3.90;;;2.13;;
2624;SDS011;1322;53.256;10.386;2022-12-07T06:08:06;5.20;;;2.33;;
2624;SDS011;1322;53.256;10.386;2022-12-07T06:10:32;8.07;;;2.60;;
2624;SDS011;1322;53.256;10.386;2022-12-07T06:12:58;6.77;;;2.90;;
2624;SDS011;1322;53.256;10.386;2022-12-07T06:15:24;3.77;;;2.53;;
2624;SDS011;1322;53.256;10.386;2022-12-07T06:17:49;5.00;;;2.77;;
2624;SDS011;1322;53.256;10.386;2022-12-07T06:20:15;4.10;;;2.40;;
2624;SDS011;1322;53.256;10.386;2022-12-07T06:22:40;3.00;;;2.37;;
2624;SDS011;1322;53.256;10.386;2022-12-07T06:25:06;3.50;;;2.50;;
2624;SDS011;1322;53.256;10.386;2022-12-07T06:27:32;4.37;;;2.93;;
2624;SDS011;1322;53.256;10.386;2022-12-07T06:29:58;4.13;;;2.93;;
2624;SDS011;1322;53.256;10.386;2022-12-07T06:32:24;3.07;;;2.07;;
2624;SDS011;1322;53.256;10.386;2022-12-07T06:34:50;6.57;;;2.63;;
2624;SDS011;1322;53.256;10.386;2022-12-07T06:37:16;4.80;;;2.70;;
2624;SDS011;1322;53.256;10.386;2022-12-07T06:39:41;4.97;;;2.50;;
2624;SDS011;1322;53.256;10.386;2022-12-07T06:42:07;3.97;;;2.20;;
2624;SDS011;1322;53.256;10.386;2022-12-07T06:44:33;5.80;;;2.80;;
2624;SDS011;1322;53.256;10.386;2022-12-07T06:46:58;5.17;;;3.03;;
2624;SDS011;1322;53.256;10.386;2022-12-07T06:49:24;6.30;;;2.80;;
2624;SDS011;1322;53.256;10.386;2022-12-07T06:51:49;8.30;;;2.53;;
2624;SDS011;1322;53.256;10.386;2022-12-07T06:54:15;5.80;;;2.57;;
2624;SDS011;1322;53.256;10.386;2022-12-07T06:56:41;3.13;;;2.40;;
2624;SDS011;1322;53.256;10.386;2022-12-07T06:59:07;3.83;;;2.30;;
2624;SDS011;1322;53.256;10.386;2022-12-07T07:01:33;3.47;;;2.50;;
2624;SDS011;1322;53.256;10.386;2022-12-07T07:04:00;3.50;;;2.80;;
2624;SDS011;1322;53.256;10.386;2022-12-07T07:06:26;3.40;;;3.00;;
2624;SDS011;1322;53.256;10.386;2022-12-07T07:08:52;5.30;;;2.67;;
2624;SDS011;1322;53.256;10.386;2022-12-07T07:11:18;12.43;;;2.47;;
2624;SDS011;1322;53.256;10.386;2022-12-07T07:13:44;4.33;;;2.70;;
2624;SDS011;1322;53.256;10.386;2022-12-07T07:16:10;3.43;;;2.40;;
2624;SDS011;1322;53.256;10.386;2022-12-07T07:18:36;3.23;;;2.33;;
2624;SDS011;1322;53.256;10.386;2022-12-07T07:21:02;4.03;;;1.93;;
2624;SDS011;1322;53.256;10.386;2022-12-07T07:23:28;2.90;;;1.90;;
2624;SDS011;1322;53.256;10.386;2022-12-07T07:25:54;3.17;;;2.33;;
2624;SDS011;1322;53.256;10.386;2022-12-07T07:28:20;2.73;;;2.20;;
2624;SDS011;1322;53.256;10.386;2022-12-07T07:30:45;5.43;;;1.93;;
2624;SDS011;1322;53.256;10.386;2022-12-07T07:33:11;4.03;;;2.10;;
2624;SDS011;1322;53.256;10.386;2022-12-07T07:35:37;4.03;;;2.40;;
2624;SDS011;1322;53.256;10.386;2022-12-07T07:38:04;8.17;;;3.10;;
2624;SDS011;1322;53.256;10.386;2022-12-07T07:40:30;3.10;;;2.37;;
2624;SDS011;1322;53.256;10.386;2022-12-07T07:42:56;4.87;;;2.90;;
2624;SDS011;1322;53.256;10.386;2022-12-07T07:45:23;2.80;;;2.10;;
2624;SDS011;1322;53.256;10.386;2022-12-07T07:47:50;3.50;;;2.07;;
2624;SDS011;1322;53.256;10.386;2022-12-07T07:50:16;8.97;;;2.90;;
2624;SDS011;1322;53.256;10.386;2022-12-07T07:52:42;3.33;;;2.37;;
2624;SDS011;1322;53.256;10.386;2022-12-07T07:55:08;4.57;;;2.33;;
2624;SDS011;1322;53.256;10.386;2022-12-07T07:57:35;3.30;;;2.20;;
2624;SDS011;1322;53.256;10.386;2022-12-07T08:00:03;4.60;;;2.97;;
2624;SDS011;1322;53.256;10.386;2022-12-07T08:02:30;2.67;;;2.20;;
2624;SDS011;1322;53.256;10.386;2022-12-07T08:04:55;5.13;;;3.00;;
2624;SDS011;1322;53.256;10.386;2022-12-07T08:07:21;3.80;;;2.00;;
2624;SDS011;1322;53.256;10.386;2022-12-07T08:09:47;8.83;;;2.87;;
2624;SDS011;1322;53.256;10.386;2022-12-07T08:12:12;5.00;;;3.10;;
2624;SDS011;1322;53.256;10.386;2022-12-07T08:14:38;3.80;;;2.40;;
2624;SDS011;1322;53.256;10.386;2022-12-07T08:17:03;2.70;;;2.00;;
2624;SDS011;1322;53.256;10.386;2022-12-07T08:19:29;3.93;;;1.80;;
2624;SDS011;1322;53.256;10.386;2022-12-07T08:21:55;4.37;;;2.43;;
2624;SDS011;1322;53.256;10.386;2022-12-07T08:24:21;4.40;;;2.10;;
2624;SDS011;1322;53.256;10.386;2022-12-07T08:26:47;2.93;;;2.10;;
2624;SDS011;1322;53.256;10.386;2022-12-07T08:29:14;4.20;;;2.10;;
2624;SDS011;1322;53.256;10.386;2022-12-07T08:31:40;3.20;;;1.97;;
2624;SDS011;1322;53.256;10.386;2022-12-07T08:34:06;6.33;;;3.30;;
2624;SDS011;1322;53.256;10.386;2022-12-07T08:36:31;4.40;;;2.30;;
2624;SDS011;1322;53.256;10.386;2022-12-07T08:38:57;4.00;;;2.17;;
2624;SDS011;1322;53.256;10.386;2022-12-07T08:41:23;4.77;;;1.97;;
2624;SDS011;1322;53.256;10.386;2022-12-07T08:43:48;2.60;;;2.40;;
2624;SDS011;1322;53.256;10.386;2022-12-07T08:46:28;2.40;;;2.20;;
2624;SDS011;1322;53.256;10.386;2022-12-07T08:48:56;8.67;;;3.13;;
2624;SDS011;1322;53.256;10.386;2022-12-07T08:51:26;2.63;;;1.70;;
2624;SDS011;1322;53.256;10.386;2022-12-07T08:53:53;3.97;;;2.50;;
2624;SDS011;1322;53.256;10.386;2022-12-07T08:56:20;3.03;;;1.80;;
2624;SDS011;1322;53.256;10.386;2022-12-07T08:58:47;3.00;;;2.20;;
2624;SDS011;1322;53.256;10.386;2022-12-07T09:01:13;7.33;;;2.30;;
2624;SDS011;1322;53.256;10.386;2022-12-07T09:03:39;4.03;;;2.40;;
2624;SDS011;1322;53.256;10.386;2022-12-07T09:06:05;6.70;;;2.23;;
2624;SDS011;1322;53.256;10.386;2022-12-07T09:08:33;10.90;;;2.50;;
2624;SDS011;1322;53.256;10.386;2022-12-07T09:11:04;2.83;;;2.50;;
2624;SDS011;1322;53.256;10.386;2022-12-07T09:13:30;4.90;;;2.27;;
2624;SDS011;1322;53.256;10.386;2022-12-07T09:15:56;3.83;;;2.47;;
2624;SDS011;1322;53.256;10.386;2022-12-07T09:18:22;3.20;;;2.00;;
2624;SDS011;1322;53.256;10.386;2022-12-07T09:20:49;8.50;;;2.80;;
2624;SDS011;1322;53.256;10.386;2022-12-07T09:23:14;8.83;;;2.20;;
2624;SDS011;1322;53.256;10.386;2022-12-07T09:25:40;1.90;;;1.50;;
2624;SDS011;1322;53.256;10.386;2022-12-07T09:28:06;3.87;;;1.70;;
2624;SDS011;1322;53.256;10.386;2022-12-07T09:30:31;5.47;;;1.57;;
2624;SDS011;1322;53.256;10.386;2022-12-07T09:32:57;4.67;;;2.27;;
2624;SDS011;1322;53.256;10.386;2022-12-07T09:35:23;3.60;;;1.90;;
2624;SDS011;1322;53.256;10.386;2022-12-07T09:37:49;4.70;;;1.53;;
2624;SDS011;1322;53.256;10.386;2022-12-07T09:40:16;4.30;;;2.17;;
2624;SDS011;1322;53.256;10.386;2022-12-07T09:42:45;5.00;;;2.33;;
2624;SDS011;1322;53.256;10.386;2022-12-07T09:45:24;2.67;;;1.60;;
2624;SDS011;1322;53.256;10.386;2022-12-07T09:48:02;2.90;;;1.50;;
2624;SDS011;1322;53.256;10.386;2022-12-07T09:50:29;4.00;;;2.53;;
2624;SDS011;1322;53.256;10.386;2022-12-07T09:52:58;2.90;;;1.70;;
2624;SDS011;1322;53.256;10.386;2022-12-07T09:55:33;3.60;;;1.70;;
2624;SDS011;1322;53.256;10.386;2022-12-07T09:58:01;4.07;;;1.87;;
2624;SDS011;1322;53.256;10.386;2022-12-07T10:00:27;4.63;;;1.70;;
2624;SDS011;1322;53.256;10.386;2022-12-07T10:02:58;13.63;;;4.50;;
2624;SDS011;1322;53.256;10.386;2022-12-07T10:08:11;3.53;;;2.57;;
2624;SDS011;1322;53.256;10.386;2022-12-07T10:10:38;1.97;;;1.77;;
2624;SDS011;1322;53.256;10.386;2022-12-07T10:13:14;4.13;;;1.97;;
2624;SDS011;1322;53.256;10.386;2022-12-07T10:15:53;3.03;;;1.87;;
2624;SDS011;1322;53.256;10.386;2022-12-07T10:20:59;4.47;;;1.60;;
2624;SDS011;1322;53.256;10.386;2022-12-07T10:24:02;6.17;;;2.10;;
2624;SDS011;1322;53.256;10.386;2022-12-07T10:26:35;2.77;;;1.60;;
2624;SDS011;1322;53.256;10.386;2022-12-07T10:31:41;2.50;;;1.40;;
2624;SDS011;1322;53.256;10.386;2022-12-07T10:42:20;3.13;;;1.50;;
2624;SDS011;1322;53.256;10.386;2022-12-07T10:44:50;1.70;;;1.30;;
2624;SDS011;1322;53.256;10.386;2022-12-07T10:50:14;7.10;;;3.10;;
2624;SDS011;1322;53.256;10.386;2022-12-07T10:53:17;2.07;;;1.50;;
2624;SDS011;1322;53.256;10.386;2022-12-07T11:07:14;7.13;;;2.00;;
2624;SDS011;1322;53.256;10.386;2022-12-07T11:18:26;1.80;;;1.00;;
2624;SDS011;1322;53.256;10.386;2022-12-07T11:34:37;2.70;;;1.63;;
2624;SDS011;1322;53.256;10.386;2022-12-07T11:37:11;2.03;;;1.20;;
2624;SDS011;1322;53.256;10.386;2022-12-07T11:39:46;2.63;;;0.93;;
2624;SDS011;1322;53.256;10.386;2022-12-07T11:42:21;5.23;;;1.43;;
2624;SDS011;1322;53.256;10.386;2022-12-07T11:45:00;3.23;;;0.90;;
2624;SDS011;1322;53.256;10.386;2022-12-07T11:47:58;4.63;;;0.90;;
2624;SDS011;1322;53.256;10.386;2022-12-07T12:01:23;1.90;;;1.57;;
2624;SDS011;1322;53.256;10.386;2022-12-07T12:06:25;2.20;;;1.40;;
2624;SDS011;1322;53.256;10.386;2022-12-07T12:14:48;3.97;;;1.70;;
2624;SDS011;1322;53.256;10.386;2022-12-07T12:18:26;7.10;;;2.53;;
2624;SDS011;1322;53.256;10.386;2022-12-07T12:21:01;5.13;;;1.80;;
2624;SDS011;1322;53.256;10.386;2022-12-07T12:26:18;3.20;;;2.07;;
2624;SDS011;1322;53.256;10.386;2022-12-07T12:28:50;4.40;;;1.33;;
2624;SDS011;1322;53.256;10.386;2022-12-07T12:31:41;4.23;;;1.60;;
2624;SDS011;1322;53.256;10.386;2022-12-07T12:40:23;3.97;;;1.67;;
2624;SDS011;1322;53.256;10.386;2022-12-07T12:42:56;1.73;;;1.30;;
2624;SDS011;1322;53.256;10.386;2022-12-07T13:00:47;6.20;;;2.60;;
2624;SDS011;1322;53.256;10.386;2022-12-07T13:03:31;3.70;;;1.30;;
2624;SDS011;1322;53.256;10.386;2022-12-07T13:08:49;8.87;;;1.90;;
2624;SDS011;1322;53.256;10.386;2022-12-07T13:11:20;2.70;;;1.57;;
2624;SDS011;1322;53.256;10.386;2022-12-07T13:17:04;3.67;;;1.23;;
2624;SDS011;1322;53.256;10.386;2022-12-07T13:19:55;4.17;;;1.23;;
2624;SDS011;1322;53.256;10.386;2022-12-07T13:25:11;3.40;;;1.70;;
2624;SDS011;1322;53.256;10.386;2022-12-07T13:27:47;3.40;;;2.07;;
2624;SDS011;1322;53.256;10.386;2022-12-07T13:30:21;37.40;;;21.30;;
2624;SDS011;1322;53.256;10.386;2022-12-07T13:32:54;6.77;;;4.47;;
2624;SDS011;1322;53.256;10.386;2022-12-07T13:35:32;5.00;;;1.60;;
2624;SDS011;1322;53.256;10.386;2022-12-07T13:38:05;3.83;;;1.70;;
2624;SDS011;1322;53.256;10.386;2022-12-07T13:40:41;5.27;;;1.70;;
2624;SDS011;1322;53.256;10.386;2022-12-07T13:43:14;7.30;;;1.80;;
2624;SDS011;1322;53.256;10.386;2022-12-07T13:45:41;10.53;;;2.37;;
2624;SDS011;1322;53.256;10.386;2022-12-07T13:48:47;7.97;;;2.57;;
2624;SDS011;1322;53.256;10.386;2022-12-07T13:51:23;3.20;;;1.60;;
2624;SDS011;1322;53.256;10.386;2022-12-07T13:54:00;3.27;;;2.10;;
2624;SDS011;1322;53.256;10.386;2022-12-07T13:56:34;7.67;;;2.20;;
2624;SDS011;1322;53.256;10.386;2022-12-07T13:59:00;4.70;;;1.97;;
2624;SDS011;1322;53.256;10.386;2022-12-07T14:01:28;4.90;;;2.43;;
2624;SDS011;1322;53.256;10.386;2022-12-07T14:03:56;7.63;;;1.67;;
2624;SDS011;1322;53.256;10.386;2022-12-07T14:06:55;3.80;;;1.63;;
2624;SDS011;1322;53.256;10.386;2022-12-07T14:09:24;2.37;;;1.50;;
2624;SDS011;1322;53.256;10.386;2022-12-07T14:11:54;3.60;;;1.80;;
2624;SDS011;1322;53.256;10.386;2022-12-07T14:14:28;5.17;;;1.67;;
2624;SDS011;1322;53.256;10.386;2022-12-07T14:17:00;9.20;;;1.60;;
2624;SDS011;1322;53.256;10.386;2022-12-07T14:19:40;3.10;;;2.23;;
2624;SDS011;1322;53.256;10.386;2022-12-07T14:22:24;7.40;;;3.27;;
2624;SDS011;1322;53.256;10.386;2022-12-07T14:24:59;10.90;;;4.00;;
2624;SDS011;1322;53.256;10.386;2022-12-07T14:27:47;9.83;;;3.30;;
2624;SDS011;1322;53.256;10.386;2022-12-07T14:30:28;7.00;;;3.10;;
2624;SDS011;1322;53.256;10.386;2022-12-07T14:33:02;5.20;;;3.20;;
2624;SDS011;1322;53.256;10.386;2022-12-07T14:35:29;5.30;;;1.63;;
2624;SDS011;1322;53.256;10.386;2022-12-07T14:37:55;2.10;;;1.40;;
2624;SDS011;1322;53.256;10.386;2022-12-07T14:40:24;7.40;;;1.50;;
2624;SDS011;1322;53.256;10.386;2022-12-07T14:45:29;5.20;;;1.30;;
2624;SDS011;1322;53.256;10.386;2022-12-07T14:47:54;7.03;;;1.90;;
2624;SDS011;1322;53.256;10.386;2022-12-07T14:50:20;3.77;;;1.90;;
2624;SDS011;1322;53.256;10.386;2022-12-07T14:52:52;3.20;;;1.33;;
2624;SDS011;1322;53.256;10.386;2022-12-07T14:55:28;10.83;;;2.20;;
2624;SDS011;1322;53.256;10.386;2022-12-07T14:57:56;3.93;;;1.43;;
2624;SDS011;1322;53.256;10.386;2022-12-07T15:00:23;4.40;;;1.70;;
2624;SDS011;1322;53.256;10.386;2022-12-07T15:02:50;3.80;;;2.23;;
2624;SDS011;1322;53.256;10.386;2022-12-07T15:05:16;6.93;;;2.37;;
2624;SDS011;1322;53.256;10.386;2022-12-07T15:07:43;3.73;;;1.87;;
2624;SDS011;1322;53.256;10.386;2022-12-07T15:10:22;3.37;;;1.70;;
2624;SDS011;1322;53.256;10.386;2022-12-07T15:12:54;5.63;;;1.70;;
2624;SDS011;1322;53.256;10.386;2022-12-07T15:15:42;3.33;;;1.97;;
2624;SDS011;1322;53.256;10.386;2022-12-07T15:18:07;4.47;;;2.20;;
2624;SDS011;1322;53.256;10.386;2022-12-07T15:20:33;8.20;;;2.60;;
2624;SDS011;1322;53.256;10.386;2022-12-07T15:22:59;4.50;;;1.63;;
2624;SDS011;1322;53.256;10.386;2022-12-07T15:25:24;3.13;;;1.90;;
2624;SDS011;1322;53.256;10.386;2022-12-07T15:27:50;3.37;;;2.07;;
2624;SDS011;1322;53.256;10.386;2022-12-07T15:30:15;6.30;;;2.50;;
2624;SDS011;1322;53.256;10.386;2022-12-07T15:32:41;5.77;;;3.30;;
2624;SDS011;1322;53.256;10.386;2022-12-07T15:35:07;7.20;;;3.40;;
2624;SDS011;1322;53.256;10.386;2022-12-07T15:37:33;6.93;;;3.50;;
2624;SDS011;1322;53.256;10.386;2022-12-07T15:39:58;10.30;;;3.00;;
2624;SDS011;1322;53.256;10.386;2022-12-07T15:42:24;6.70;;;2.93;;
2624;SDS011;1322;53.256;10.386;2022-12-07T15:44:50;5.73;;;2.13;;
2624;SDS011;1322;53.256;10.386;2022-12-07T15:47:33;8.10;;;3.47;;
2624;SDS011;1322;53.256;10.386;2022-12-07T15:50:01;5.00;;;1.90;;
2624;SDS011;1322;53.256;10.386;2022-12-07T15:52:29;7.60;;;2.20;;
2624;SDS011;1322;53.256;10.386;2022-12-07T15:54:55;4.57;;;1.90;;
2624;SDS011;1322;53.256;10.386;2022-12-07T15:57:20;5.27;;;1.87;;
2624;SDS011;1322;53.256;10.386;2022-12-07T15:59:46;5.33;;;2.07;;
2624;SDS011;1322;53.256;10.386;2022-12-07T16:02:12;3.20;;;1.40;;
2624;SDS011;1322;53.256;10.386;2022-12-07T16:04:38;5.93;;;2.47;;
2624;SDS011;1322;53.256;10.386;2022-12-07T16:07:03;3.53;;;1.80;;
2624;SDS011;1322;53.256;10.386;2022-12-07T16:09:29;6.93;;;1.67;;
2624;SDS011;1322;53.256;10.386;2022-12-07T16:11:55;4.83;;;2.07;;
2624;SDS011;1322;53.256;10.386;2022-12-07T16:14:21;4.30;;;2.00;;
2624;SDS011;1322;53.256;10.386;2022-12-07T16:16:46;4.30;;;2.03;;
2624;SDS011;1322;53.256;10.386;2022-12-07T16:19:13;3.20;;;1.50;;
2624;SDS011;1322;53.256;10.386;2022-12-07T16:21:39;5.93;;;2.47;;
2624;SDS011;1322;53.256;10.386;2022-12-07T16:24:05;6.00;;;3.40;;
2624;SDS011;1322;53.256;10.386;2022-12-07T16:26:31;8.23;;;3.47;;
2624;SDS011;1322;53.256;10.386;2022-12-07T16:28:57;8.33;;;3.33;;
2624;SDS011;1322;53.256;10.386;2022-12-07T16:31:24;7.70;;;3.60;;
2624;SDS011;1322;53.256;10.386;2022-12-07T16:33:55;3.70;;;2.40;;
2624;SDS011;1322;53.256;10.386;2022-12-07T16:36:22;8.27;;;3.17;;
2624;SDS011;1322;53.256;10.386;2022-12-07T16:38:50;4.80;;;2.30;;
2624;SDS011;1322;53.256;10.386;2022-12-07T16:41:16;5.57;;;3.20;;
2624;SDS011;1322;53.256;10.386;2022-12-07T16:43:42;7.80;;;2.37;;
2624;SDS011;1322;53.256;10.386;2022-12-07T16:46:07;3.73;;;2.47;;
2624;SDS011;1322;53.256;10.386;2022-12-07T16:48:37;8.03;;;3.17;;
2624;SDS011;1322;53.256;10.386;2022-12-07T16:51:04;6.77;;;3.27;;
2624;SDS011;1322;53.256;10.386;2022-12-07T16:53:31;16.00;;;8.63;;
2624;SDS011;1322;53.256;10.386;2022-12-07T16:55:56;12.90;;;7.30;;
2624;SDS011;1322;53.256;10.386;2022-12-07T16:58:22;12.50;;;7.03;;
2624;SDS011;1322;53.256;10.386;2022-12-07T17:00:47;15.87;;;6.80;;
2624;SDS011;1322;53.256;10.386;2022-12-07T17:03:13;10.90;;;5.53;;
2624;SDS011;1322;53.256;10.386;2022-12-07T17:05:40;13.53;;;5.27;;
2624;SDS011;1322;53.256;10.386;2022-12-07T17:08:06;6.90;;;4.83;;
2624;SDS011;1322;53.256;10.386;2022-12-07T17:10:33;11.73;;;6.90;;
2624;SDS011;1322;53.256;10.386;2022-12-07T17:13:00;13.30;;;6.20;;
2624;SDS011;1322;53.256;10.386;2022-12-07T17:15:26;12.53;;;4.53;;
2624;SDS011;1322;53.256;10.386;2022-12-07T17:17:54;13.20;;;7.33;;
2624;SDS011;1322;53.256;10.386;2022-12-07T17:20:21;12.13;;;6.50;;
2624;SDS011;1322;53.256;10.386;2022-12-07T17:22:48;10.90;;;6.30;;
2624;SDS011;1322;53.256;10.386;2022-12-07T17:25:15;13.00;;;10.10;;
2624;SDS011;1322;53.256;10.386;2022-12-07T17:27:41;17.63;;;10.67;;
2624;SDS011;1322;53.256;10.386;2022-12-07T17:30:07;18.83;;;12.10;;
2624;SDS011;1322;53.256;10.386;2022-12-07T17:32:33;19.70;;;12.53;;